createdAt,value
2023-03-15T00:00:24.496Z,94292.00
2023-03-15T00:01:24.493Z,94290.00
2023-03-15T00:02:24.542Z,94290.00
2023-03-15T00:03:24.636Z,94288.00
2023-03-15T00:04:24.652Z,94292.00
2023-03-15T00:05:24.552Z,94286.00
2023-03-15T00:06:24.532Z,94290.00
2023-03-15T00:07:24.542Z,94294.00
2023-03-15T00:09:24.549Z,94300.00
2023-03-15T00:10:24.571Z,94304.00
2023-03-15T00:11:24.570Z,94310.00
2023-03-15T00:12:24.573Z,94313.00
2023-03-15T00:13:24.562Z,94315.00
2023-03-15T00:14:24.598Z,94317.00
2023-03-15T00:15:24.597Z,94317.00
2023-03-15T00:16:24.601Z,94315.00
2023-03-15T00:17:24.570Z,94312.00
2023-03-15T00:18:24.571Z,94306.00
2023-03-15T00:19:24.601Z,94298.00
2023-03-15T00:20:24.590Z,94294.00
2023-03-15T00:21:24.591Z,94292.00
2023-03-15T00:22:24.595Z,94290.00
2023-03-15T00:23:24.604Z,94292.00
2023-03-15T00:24:25.240Z,94290.00
2023-03-15T00:25:24.595Z,94290.00
2023-03-15T00:26:24.640Z,94288.00
2023-03-15T00:27:24.583Z,94284.00
2023-03-15T00:28:24.660Z,94282.00
2023-03-15T00:29:24.609Z,94280.00
2023-03-15T00:30:24.595Z,94276.00
2023-03-15T00:31:24.610Z,94278.00
2023-03-15T00:32:24.668Z,94276.00
2023-03-15T00:33:24.590Z,94276.00
2023-03-15T00:34:24.644Z,94278.00
2023-03-15T00:37:24.642Z,94284.00
2023-03-15T00:38:24.586Z,94284.00
2023-03-15T00:39:24.630Z,94286.00
2023-03-15T00:40:24.623Z,94286.00
2023-03-15T00:41:24.617Z,94286.00
2023-03-15T00:42:24.636Z,94290.00
2023-03-15T00:43:24.697Z,94286.00
2023-03-15T00:44:24.707Z,94288.00
2023-03-15T00:45:24.667Z,94282.00
2023-03-15T00:46:24.672Z,94284.00
2023-03-15T00:47:24.654Z,94280.00
2023-03-15T00:48:24.639Z,94280.00
2023-03-15T00:49:24.638Z,94280.00
2023-03-15T00:50:24.636Z,94276.00
2023-03-15T00:51:24.676Z,94278.00
2023-03-15T00:52:24.657Z,94276.00
2023-03-15T00:53:24.662Z,94274.00
2023-03-15T00:54:24.672Z,94274.00
2023-03-15T00:55:24.685Z,94270.00
2023-03-15T00:56:24.687Z,94272.00
2023-03-15T00:57:24.656Z,94265.00
2023-03-15T00:58:26.545Z,94265.00
2023-03-15T00:59:24.655Z,94265.00
2023-03-15T01:00:24.836Z,94261.00
2023-03-15T01:01:24.727Z,94261.00
2023-03-15T01:02:24.637Z,94259.00
2023-03-15T01:03:24.613Z,94261.00
2023-03-15T01:04:24.640Z,94261.00
2023-03-15T01:05:24.593Z,94261.00
2023-03-15T01:06:24.626Z,94263.00
2023-03-15T01:07:24.604Z,94265.00
2023-03-15T01:08:24.575Z,94268.00
2023-03-15T01:09:24.631Z,94268.00
2023-03-15T01:10:24.577Z,94268.00
2023-03-15T01:11:24.610Z,94266.00
2023-03-15T01:12:24.532Z,94263.00
2023-03-15T01:13:24.548Z,94263.00
2023-03-15T01:14:24.552Z,94265.00
2023-03-15T01:15:24.563Z,94263.00
2023-03-15T01:16:24.542Z,94263.00
2023-03-15T01:17:24.519Z,94263.00
2023-03-15T01:18:24.486Z,94261.00
2023-03-15T01:19:24.497Z,94261.00
2023-03-15T01:20:24.509Z,94259.00
2023-03-15T01:21:24.517Z,94257.00
2023-03-15T01:22:24.493Z,94257.00
2023-03-15T01:23:24.486Z,94257.00
2023-03-15T01:24:24.482Z,94257.00
2023-03-15T01:25:24.474Z,94261.00
2023-03-15T01:26:24.455Z,94261.00
2023-03-15T01:27:24.437Z,94261.00
2023-03-15T01:28:24.426Z,94263.00
2023-03-15T01:29:24.459Z,94265.00
2023-03-15T01:30:24.444Z,94265.00
2023-03-15T01:31:24.437Z,94268.00
2023-03-15T01:32:24.418Z,94266.00
2023-03-15T01:33:24.387Z,94266.00
2023-03-15T01:34:24.387Z,94263.00
2023-03-15T01:35:24.410Z,94261.00
2023-03-15T01:36:24.398Z,94257.00
2023-03-15T01:37:24.387Z,94255.00
2023-03-15T01:38:24.359Z,94255.00
2023-03-15T01:39:24.345Z,94251.00
2023-03-15T01:40:24.372Z,94251.00
2023-03-15T01:41:24.333Z,94251.00
2023-03-15T01:42:24.360Z,94253.00
2023-03-15T01:43:24.342Z,94251.00
2023-03-15T01:44:24.348Z,94251.00
2023-03-15T01:45:24.314Z,94251.00
2023-03-15T01:46:24.348Z,94249.00
2023-03-15T01:47:24.318Z,94249.00
2023-03-15T01:48:24.328Z,94249.00
2023-03-15T01:49:24.300Z,94251.00
2023-03-15T01:50:24.305Z,94251.00
2023-03-15T01:51:24.260Z,94251.00
2023-03-15T01:52:24.279Z,94249.00
2023-03-15T01:53:24.245Z,94249.00
2023-03-15T01:54:24.279Z,94245.00
2023-03-15T01:55:24.274Z,94245.00
2023-03-15T01:56:24.253Z,94241.00
2023-03-15T01:57:24.238Z,94243.00
2023-03-15T01:58:24.213Z,94241.00
2023-03-15T01:59:24.224Z,94243.00
2023-03-15T02:00:24.211Z,94241.00
2023-03-15T02:01:24.208Z,94241.00
2023-03-15T02:02:24.219Z,94241.00
2023-03-15T02:03:24.176Z,94241.00
2023-03-15T02:04:24.179Z,94241.00
2023-03-15T02:05:24.169Z,94239.00
2023-03-15T02:06:24.173Z,94241.00
2023-03-15T02:07:24.145Z,94239.00
2023-03-15T02:08:24.147Z,94237.00
2023-03-15T02:09:24.114Z,94237.00
2023-03-15T02:10:24.122Z,94233.00
2023-03-15T02:11:24.149Z,94231.00
2023-03-15T02:12:24.118Z,94227.00
2023-03-15T02:13:24.116Z,94227.00
2023-03-15T02:14:24.116Z,94229.00
2023-03-15T02:15:24.063Z,94229.00
2023-03-15T02:16:24.150Z,94233.00
2023-03-15T02:17:24.082Z,94237.00
2023-03-15T02:18:24.069Z,94239.00
2023-03-15T02:20:24.031Z,94243.00
2023-03-15T02:29:23.968Z,94276.00
2023-03-15T02:30:23.951Z,94280.00
2023-03-15T02:31:23.976Z,94280.00
2023-03-15T02:32:23.993Z,94286.00
2023-03-15T02:33:23.939Z,94294.00
2023-03-15T02:34:23.955Z,94296.00
2023-03-15T02:35:23.920Z,94302.00
2023-03-15T02:36:23.905Z,94304.00
2023-03-15T02:37:23.907Z,94308.00
2023-03-15T02:38:23.909Z,94310.00
2023-03-15T02:39:23.910Z,94312.00
2023-03-15T02:40:23.882Z,94315.00
2023-03-15T02:41:23.863Z,94315.00
2023-03-15T02:42:23.873Z,94319.00
2023-03-15T02:43:23.838Z,94323.00
2023-03-15T02:44:23.849Z,94327.00
2023-03-15T02:45:23.875Z,94335.00
2023-03-15T02:46:23.922Z,94339.00
2023-03-15T02:47:23.861Z,94341.00
2023-03-15T02:48:23.822Z,94339.00
2023-03-15T02:49:23.832Z,94347.00
2023-03-15T02:50:23.829Z,94347.00
2023-03-15T02:51:23.800Z,94353.00
2023-03-15T02:52:23.784Z,94353.00
2023-03-15T02:53:23.812Z,94349.00
2023-03-15T02:54:23.825Z,94347.00
2023-03-15T02:55:23.782Z,94353.00
2023-03-15T02:56:23.771Z,94363.00
2023-03-15T02:57:23.737Z,94380.00
2023-03-15T02:58:23.764Z,94380.00
2023-03-15T02:59:23.752Z,94382.00
2023-03-15T03:00:23.758Z,94384.00
2023-03-15T03:01:23.841Z,94388.00
2023-03-15T03:02:23.829Z,94388.00
2023-03-15T03:03:23.749Z,94388.00
2023-03-15T03:04:23.759Z,94384.00
2023-03-15T03:05:23.749Z,94384.00
2023-03-15T03:06:23.735Z,94386.00
2023-03-15T03:07:23.743Z,94386.00
2023-03-15T03:08:23.717Z,94392.00
2023-03-15T03:09:23.707Z,94390.00
2023-03-15T03:10:23.690Z,94390.00
2023-03-15T03:11:23.656Z,94390.00
2023-03-15T03:12:23.644Z,94392.00
2023-03-15T03:13:23.649Z,94392.00
2023-03-15T03:14:23.646Z,94396.00
2023-03-15T03:15:23.639Z,94398.00
2023-03-15T03:16:23.656Z,94402.00
2023-03-15T03:17:23.628Z,94404.00
2023-03-15T03:18:23.602Z,94406.00
2023-03-15T03:19:23.598Z,94408.00
2023-03-15T03:20:23.606Z,94408.00
2023-03-15T03:21:23.602Z,94410.00
2023-03-15T03:22:23.610Z,94413.00
2023-03-15T03:23:23.570Z,94419.00
2023-03-15T03:24:23.667Z,94415.00
2023-03-15T03:25:23.545Z,94417.00
2023-03-15T03:26:23.576Z,94417.00
2023-03-15T03:27:23.542Z,94415.00
2023-03-15T03:28:23.561Z,94415.00
2023-03-15T03:29:23.544Z,94417.00
2023-03-15T04:10:23.262Z,94509.00
2023-03-15T04:11:23.256Z,94506.00
2023-03-15T04:12:23.326Z,94513.00
2023-03-15T04:13:23.233Z,94511.00
2023-03-15T04:14:23.239Z,94525.00
2023-03-15T04:15:23.238Z,94527.00
2023-03-15T04:16:23.297Z,94529.00
2023-03-15T04:17:23.229Z,94531.00
2023-03-15T04:18:23.223Z,94537.00
2023-03-15T04:19:23.253Z,94543.00
2023-03-15T04:20:23.221Z,94551.00
2023-03-15T04:21:23.212Z,94543.00
2023-03-15T04:22:23.269Z,94549.00
2023-03-15T04:23:23.287Z,94547.00
2023-03-15T04:24:23.311Z,94539.00
2023-03-15T04:25:23.356Z,94535.00
2023-03-15T04:26:23.421Z,94537.00
2023-03-15T04:27:23.467Z,94537.00
2023-03-15T04:28:23.494Z,94539.00
2023-03-15T04:29:23.581Z,94543.00
2023-03-15T04:30:23.610Z,94553.00
2023-03-15T06:46:34.608Z,94819.00
2023-03-15T09:44:31.667Z,94927.00
2023-03-15T09:45:32.697Z,94927.00
2023-03-15T09:46:31.814Z,94929.00
2023-03-15T09:47:31.794Z,94925.00
2023-03-15T09:48:31.787Z,94925.00
2023-03-15T09:49:31.839Z,94921.00
2023-03-15T09:50:31.916Z,94929.00
2023-03-15T09:51:31.918Z,94931.00
2023-03-15T09:52:32.001Z,94925.00
2023-03-15T09:53:32.197Z,94923.00
2023-03-15T09:54:32.068Z,94921.00
2023-03-15T09:55:32.143Z,94925.00
2023-03-15T09:56:32.162Z,94927.00
2023-03-15T09:57:32.189Z,94925.00
2023-03-15T09:58:32.772Z,94921.00
2023-03-15T09:59:32.313Z,94925.00
2023-03-15T10:00:32.390Z,94923.00
2023-03-15T10:01:32.468Z,94921.00
2023-03-15T10:02:32.402Z,94925.00
2023-03-15T10:03:32.740Z,94923.00
2023-03-15T10:04:32.466Z,94921.00
2023-03-15T10:05:32.536Z,94921.00
2023-03-15T10:06:32.577Z,94921.00
2023-03-15T10:07:32.588Z,94921.00
2023-03-15T10:08:32.697Z,94925.00
2023-03-15T10:09:32.657Z,94919.00
2023-03-15T10:10:32.722Z,94923.00
2023-03-15T10:11:32.809Z,94923.00
2023-03-15T10:12:32.817Z,94921.00
2023-03-15T10:13:32.926Z,94921.00
2023-03-15T10:14:33.005Z,94917.00
2023-03-15T10:15:33.038Z,94921.00
2023-03-15T10:16:33.189Z,94915.00
2023-03-15T10:17:33.131Z,94919.00
2023-03-15T10:18:33.237Z,94915.00
2023-03-15T10:19:33.241Z,94917.00
2023-03-15T10:20:33.280Z,94915.00
2023-03-15T10:21:33.363Z,94919.00
2023-03-15T10:22:33.386Z,94921.00
2023-03-15T10:23:33.732Z,94921.00
2023-03-15T10:24:33.528Z,94917.00
2023-03-15T10:25:33.540Z,94919.00
2023-03-15T10:26:33.590Z,94917.00
2023-03-15T10:27:33.646Z,94917.00
2023-03-15T10:28:37.053Z,94919.00
2023-03-15T10:29:33.716Z,94915.00
2023-03-15T10:30:33.655Z,94917.00
2023-03-15T10:31:44.189Z,94915.00
2023-03-15T10:32:34.727Z,94917.00
2023-03-15T10:33:33.652Z,94915.00
2023-03-15T10:34:33.667Z,94915.00
2023-03-15T10:35:33.734Z,94915.00
2023-03-15T10:36:33.682Z,94915.00
2023-03-15T10:37:35.559Z,94921.00
2023-03-15T10:38:33.705Z,94921.00
2023-03-15T10:39:33.621Z,94917.00
2023-03-15T10:40:33.686Z,94911.00
2023-03-15T10:41:33.723Z,94911.00
2023-03-15T10:42:33.601Z,94917.00
2023-03-15T10:43:33.618Z,94915.00
2023-03-15T10:44:33.674Z,94917.00
2023-03-15T10:45:33.627Z,94909.00
2023-03-15T10:46:33.720Z,94909.00
2023-03-15T10:47:33.673Z,94907.00
2023-03-15T10:48:33.690Z,94905.00
2023-03-15T10:49:34.210Z,94902.00
2023-03-15T10:50:33.759Z,94902.00
2023-03-15T10:51:33.740Z,94900.00
2023-03-15T10:52:33.767Z,94900.00
2023-03-15T10:53:33.819Z,94903.00
2023-03-15T10:54:34.226Z,94905.00
2023-03-15T10:55:33.901Z,94902.00
2023-03-15T10:56:33.910Z,94907.00
2023-03-15T10:57:33.906Z,94905.00
2023-03-15T10:58:34.223Z,94903.00
2023-03-15T10:59:33.999Z,94905.00
2023-03-15T11:00:34.052Z,94900.00
2023-03-15T11:01:34.179Z,94902.00
2023-03-15T11:02:34.162Z,94907.00
2023-03-15T11:03:34.109Z,94902.00
2023-03-15T11:04:34.496Z,94898.00
2023-03-15T11:05:34.096Z,94903.00
2023-03-15T11:06:34.112Z,94902.00
2023-03-15T11:07:34.190Z,94900.00
2023-03-15T11:08:34.239Z,94900.00
2023-03-15T11:09:34.296Z,94900.00
2023-03-15T11:10:34.349Z,94896.00
2023-03-15T11:11:34.405Z,94898.00
2023-03-15T11:12:34.400Z,94900.00
2023-03-15T11:13:34.453Z,94902.00
2023-03-15T11:14:34.492Z,94896.00
2023-03-15T11:15:34.490Z,94896.00
2023-03-15T11:16:34.563Z,94892.00
2023-03-15T11:17:34.519Z,94892.00
2023-03-15T11:19:34.521Z,94894.00
2023-03-15T11:20:34.626Z,94896.00
2023-03-15T11:21:34.622Z,94894.00
2023-03-15T11:22:34.621Z,94890.00
2023-03-15T11:23:34.694Z,94892.00
2023-03-15T11:24:34.768Z,94898.00
2023-03-15T11:25:34.859Z,94898.00
2023-03-15T11:26:34.867Z,94890.00
2023-03-15T11:27:34.918Z,94892.00
2023-03-15T11:28:34.954Z,94896.00
2023-03-15T11:29:35.028Z,94896.00
2023-03-15T11:30:35.105Z,94894.00
2023-03-15T11:31:35.259Z,94892.00
2023-03-15T11:32:35.226Z,94890.00
2023-03-15T11:33:37.269Z,94890.00
2023-03-15T11:34:35.707Z,94894.00
2023-03-15T11:35:35.404Z,94896.00
2023-03-15T11:36:35.377Z,94894.00
2023-03-15T11:37:35.429Z,94890.00
2023-03-15T11:38:35.471Z,94894.00
2023-03-15T11:39:35.728Z,94896.00
2023-03-15T11:40:35.571Z,94898.00
2023-03-15T11:41:35.586Z,94896.00
2023-03-15T11:42:35.663Z,94896.00
2023-03-15T11:43:35.710Z,94898.00
2023-03-15T11:44:35.700Z,94900.00
2023-03-15T11:45:35.813Z,94896.00
2023-03-15T11:46:35.715Z,94892.00
2023-03-15T11:47:35.803Z,94888.00
2023-03-15T11:48:35.819Z,94888.00
2023-03-15T11:49:36.221Z,94876.00
2023-03-15T11:50:35.897Z,94876.00
2023-03-15T11:51:35.901Z,94874.00
2023-03-15T11:52:35.956Z,94870.00
2023-03-15T11:53:35.966Z,94872.00
2023-03-15T11:54:36.052Z,94874.00
2023-03-15T11:55:36.030Z,94874.00
2023-03-15T11:56:36.079Z,94874.00
2023-03-15T11:57:36.183Z,94874.00
2023-03-15T11:58:36.183Z,94876.00
2023-03-15T11:59:36.314Z,94870.00
2023-03-15T12:00:36.199Z,94870.00
2023-03-15T12:01:36.244Z,94874.00
2023-03-15T12:02:36.325Z,94866.00
2023-03-15T12:03:36.326Z,94872.00
2023-03-15T12:04:36.344Z,94870.00
2023-03-15T12:05:36.357Z,94866.00
2023-03-15T12:06:36.405Z,94866.00
2023-03-15T12:07:36.381Z,94866.00
2023-03-15T12:08:36.432Z,94864.00
2023-03-15T12:09:36.517Z,94868.00
2023-03-15T12:10:36.556Z,94864.00
2023-03-15T12:11:36.570Z,94866.00
2023-03-15T12:12:36.573Z,94864.00
2023-03-15T12:13:36.617Z,94862.00
2023-03-15T12:14:36.629Z,94860.00
2023-03-15T12:15:36.686Z,94860.00
2023-03-15T12:16:36.733Z,94860.00
2023-03-15T12:17:37.695Z,94860.00
2023-03-15T12:18:36.766Z,94868.00
2023-03-15T12:19:36.833Z,94864.00
2023-03-15T12:20:36.833Z,94857.00
2023-03-15T12:21:36.820Z,94857.00
2023-03-15T12:22:36.880Z,94853.00
2023-03-15T12:23:36.901Z,94855.00
2023-03-15T12:24:37.082Z,94857.00
2023-03-15T12:25:45.381Z,94853.00
2023-03-15T12:26:38.022Z,94851.00
2023-03-15T12:27:36.941Z,94853.00
2023-03-15T12:28:36.971Z,94847.00
2023-03-15T12:29:37.290Z,94847.00
2023-03-15T12:30:36.989Z,94851.00
2023-03-15T12:31:36.963Z,94845.00
2023-03-15T12:32:36.940Z,94847.00
2023-03-15T12:33:36.939Z,94849.00
2023-03-15T12:34:37.332Z,94847.00
2023-03-15T12:35:36.912Z,94843.00
2023-03-15T12:36:36.931Z,94843.00
2023-03-15T12:37:36.925Z,94847.00
2023-03-15T12:38:36.999Z,94847.00
2023-03-15T12:39:37.019Z,94847.00
2023-03-15T12:40:37.071Z,94847.00
2023-03-15T12:41:37.114Z,94845.00
2023-03-15T12:42:37.108Z,94847.00
2023-03-15T12:43:37.180Z,94845.00
2023-03-15T12:44:37.190Z,94845.00
2023-03-15T12:45:37.675Z,94843.00
2023-03-15T12:46:37.247Z,94847.00
2023-03-15T12:47:37.271Z,94845.00
2023-03-15T12:48:37.308Z,94841.00
2023-03-15T12:49:37.316Z,94845.00
2023-03-15T12:50:37.381Z,94847.00
2023-03-15T12:51:37.411Z,94845.00
2023-03-15T12:52:37.442Z,94845.00
2023-03-15T12:53:37.452Z,94845.00
2023-03-15T12:54:37.527Z,94845.00
2023-03-15T12:55:37.531Z,94847.00
2023-03-15T12:56:37.583Z,94847.00
2023-03-15T12:57:37.619Z,94845.00
2023-03-15T12:58:37.649Z,94845.00
2023-03-15T12:59:37.670Z,94843.00
2023-03-15T13:00:37.725Z,94847.00
2023-03-15T13:01:37.762Z,94843.00
2023-03-15T13:02:43.907Z,94851.00
2023-03-15T13:03:38.869Z,94847.00
2023-03-15T13:04:37.765Z,94843.00
2023-03-15T13:05:37.739Z,94847.00
2023-03-15T13:06:37.757Z,94847.00
2023-03-15T13:07:50.648Z,94847.00
2023-03-15T13:08:38.745Z,94847.00
2023-03-15T13:09:37.765Z,94849.00
2023-03-15T13:10:37.724Z,94845.00
2023-03-15T13:11:37.757Z,94845.00
2023-03-15T13:12:37.741Z,94841.00
2023-03-15T13:13:37.722Z,94845.00
2023-03-15T13:14:37.698Z,94847.00
2023-03-15T13:15:39.674Z,94851.00
2023-03-15T13:16:37.716Z,94853.00
2023-03-15T13:17:37.731Z,94855.00
2023-03-15T13:18:37.678Z,94849.00
2023-03-15T13:19:37.667Z,94851.00
2023-03-15T13:20:37.641Z,94851.00
2023-03-15T13:21:37.643Z,94855.00
2023-03-15T13:22:46.733Z,94855.00
2023-03-15T13:23:38.634Z,94853.00
2023-03-15T13:24:37.628Z,94855.00
2023-03-15T13:25:37.603Z,94853.00
2023-03-15T13:26:37.621Z,94851.00
2023-03-15T13:27:37.602Z,94853.00
2023-03-15T13:28:37.611Z,94849.00
2023-03-15T13:29:37.596Z,94851.00
2023-03-15T13:30:37.576Z,94849.00
2023-03-15T13:31:37.622Z,94849.00
2023-03-15T13:32:37.610Z,94847.00
2023-03-15T13:33:37.551Z,94845.00
2023-03-15T13:34:37.594Z,94845.00
2023-03-15T13:35:37.567Z,94841.00
2023-03-15T13:36:37.586Z,94843.00
2023-03-15T13:37:37.602Z,94841.00
2023-03-15T13:38:37.683Z,94845.00
2023-03-15T13:39:37.678Z,94845.00
2023-03-15T13:40:37.706Z,94841.00
2023-03-15T13:41:37.746Z,94843.00
2023-03-15T13:42:37.807Z,94845.00
2023-03-15T13:43:37.852Z,94847.00
2023-03-15T13:44:37.857Z,94845.00
2023-03-15T13:45:37.907Z,94841.00
2023-03-15T13:46:38.048Z,94841.00
2023-03-15T13:47:38.038Z,94837.00
2023-03-15T13:48:38.049Z,94835.00
2023-03-15T13:49:38.281Z,94837.00
2023-03-15T13:50:38.120Z,94837.00
2023-03-15T13:51:38.156Z,94843.00
2023-03-15T13:52:38.210Z,94841.00
2023-03-15T13:53:49.150Z,94843.00
2023-03-15T13:54:39.256Z,94851.00
2023-03-15T13:56:48.790Z,94851.00
2023-03-15T13:57:39.185Z,94853.00
2023-03-15T13:58:38.170Z,94853.00
2023-03-15T15:17:41.675Z,94921.00
2023-03-15T15:18:41.732Z,94915.00
2023-03-15T15:19:41.797Z,94919.00
2023-03-15T15:20:41.854Z,94919.00
2023-03-15T15:21:41.849Z,94917.00
2023-03-15T15:22:41.902Z,94919.00
2023-03-15T15:23:56.959Z,94917.00
2023-03-15T15:24:42.960Z,94915.00
2023-03-15T15:25:41.944Z,94927.00
2023-03-15T15:26:41.934Z,94921.00
2023-03-15T15:27:41.947Z,94917.00
2023-03-15T15:28:41.901Z,94917.00
2023-03-15T15:29:41.913Z,94917.00
2023-03-15T15:30:41.929Z,94919.00
2023-03-15T15:31:41.950Z,94919.00
2023-03-15T15:32:41.928Z,94921.00
2023-03-15T15:33:41.882Z,94921.00
2023-03-15T15:34:41.906Z,94917.00
2023-03-15T15:35:41.907Z,94917.00
2023-03-15T15:36:41.889Z,94917.00
2023-03-15T15:37:41.879Z,94921.00
2023-03-15T15:38:41.859Z,94919.00
2023-03-15T15:39:41.881Z,94921.00
2023-03-15T15:40:41.887Z,94923.00
2023-03-15T15:41:41.940Z,94925.00
2023-03-15T15:42:42.019Z,94925.00
2023-03-15T15:43:42.113Z,94927.00
2023-03-15T15:44:42.124Z,94929.00
2023-03-15T15:45:42.222Z,94933.00
2023-03-15T15:46:42.136Z,94935.00
2023-03-15T15:47:42.140Z,94933.00
2023-03-15T15:48:42.185Z,94935.00
2023-03-15T15:49:42.173Z,94931.00
2023-03-15T15:50:42.253Z,94937.00
2023-03-15T15:51:42.335Z,94937.00
2023-03-15T15:52:42.376Z,94939.00
2023-03-15T15:53:42.476Z,94937.00
2023-03-15T15:54:42.551Z,94947.00
2023-03-15T15:55:42.685Z,94949.00
2023-03-15T15:56:42.757Z,94949.00
2023-03-15T15:57:42.784Z,94949.00
2023-03-15T15:58:42.880Z,94954.00
2023-03-15T15:59:42.983Z,94949.00
2023-03-15T16:00:43.111Z,94953.00
2023-03-15T16:01:58.901Z,94947.00
2023-03-15T16:02:44.144Z,94949.00
2023-03-15T16:03:43.076Z,94954.00
2023-03-15T16:04:43.073Z,94954.00
2023-03-15T16:05:43.081Z,94953.00
2023-03-15T16:06:43.363Z,94953.00
2023-03-15T16:07:43.009Z,94958.00
2023-03-15T16:08:43.058Z,94958.00
2023-03-15T16:09:43.003Z,94956.00
2023-03-15T16:10:43.000Z,94953.00
2023-03-15T16:11:43.021Z,94958.00
2023-03-15T16:12:43.021Z,94958.00
2023-03-15T16:13:42.962Z,94958.00
2023-03-15T16:14:42.999Z,94960.00
2023-03-15T16:15:43.049Z,94956.00
2023-03-15T16:16:42.944Z,94958.00
2023-03-15T16:17:43.011Z,94958.00
2023-03-15T16:18:43.122Z,94960.00
2023-03-15T16:19:43.237Z,94960.00
2023-03-15T16:20:43.322Z,94964.00
2023-03-15T16:21:43.412Z,94966.00
2023-03-15T16:22:43.504Z,94968.00
2023-03-15T16:23:43.613Z,94968.00
2023-03-15T16:24:43.662Z,94970.00
2023-03-15T16:25:43.667Z,94972.00
2023-03-15T16:26:43.687Z,94976.00
2023-03-15T16:27:43.693Z,94978.00
2023-03-15T16:28:43.669Z,94978.00
2023-03-15T16:29:43.700Z,94976.00
2023-03-15T16:30:46.493Z,94980.00
2023-03-15T16:31:43.723Z,94980.00
2023-03-15T16:32:45.009Z,94984.00
2023-03-15T16:33:43.745Z,94988.00
2023-03-15T16:34:43.691Z,94990.00
2023-03-15T16:36:43.662Z,94994.00
2023-03-15T16:37:43.710Z,94994.00
2023-03-15T16:38:43.664Z,94994.00
2023-03-15T16:39:43.670Z,95000.00
2023-03-15T16:40:43.625Z,95002.00
2023-03-15T16:41:43.634Z,95005.00
2023-03-15T16:42:43.631Z,95007.00
2023-03-15T16:43:43.642Z,95007.00
2023-03-15T16:44:43.594Z,95007.00
2023-03-15T16:45:43.633Z,95007.00
2023-03-15T16:46:43.672Z,95007.00
2023-03-15T16:47:43.627Z,95011.00
2023-03-15T16:48:43.652Z,95007.00
2023-03-15T16:49:43.594Z,95009.00
2023-03-15T16:50:43.591Z,95011.00
2023-03-15T16:51:43.607Z,95013.00
2023-03-15T16:52:43.587Z,95013.00
2023-03-15T16:53:43.562Z,95011.00
2023-03-15T16:54:43.550Z,95017.00
2023-03-15T16:55:43.580Z,95021.00
2023-03-15T16:56:43.528Z,95019.00
2023-03-15T16:57:43.566Z,95023.00
2023-03-15T16:58:43.554Z,95023.00
2023-03-15T16:59:43.558Z,95031.00
2023-03-15T17:00:43.539Z,95035.00
2023-03-15T17:01:43.535Z,95033.00
2023-03-15T17:02:43.525Z,95027.00
2023-03-15T17:03:43.516Z,95029.00
2023-03-15T17:04:43.545Z,95027.00
2023-03-15T17:05:43.489Z,95031.00
2023-03-15T17:06:43.496Z,95035.00
2023-03-15T17:07:43.474Z,95035.00
2023-03-15T17:08:43.468Z,95037.00
2023-03-15T17:09:43.473Z,95037.00
2023-03-15T17:10:43.460Z,95037.00
2023-03-15T17:11:43.451Z,95037.00
2023-03-15T17:12:44.364Z,95037.00
2023-03-15T17:13:43.456Z,95039.00
2023-03-15T17:14:43.417Z,95041.00
2023-03-15T17:15:43.409Z,95039.00
2023-03-15T17:16:43.574Z,95043.00
2023-03-15T17:17:43.427Z,95045.00
2023-03-15T17:18:43.375Z,95051.00
2023-03-15T17:19:43.411Z,95052.00
2023-03-15T17:20:43.388Z,95052.00
2023-03-15T17:21:43.440Z,95052.00
2023-03-15T17:22:43.527Z,95054.00
2023-03-15T17:23:43.530Z,95056.00
2023-03-15T17:24:43.535Z,95060.00
2023-03-15T17:25:43.534Z,95054.00
2023-03-15T17:26:43.559Z,95064.00
2023-03-15T17:27:43.605Z,95068.00
2023-03-15T17:28:43.727Z,95066.00
2023-03-15T17:29:43.622Z,95070.00
2023-03-15T17:30:43.634Z,95078.00
2023-03-15T17:31:43.746Z,95078.00
2023-03-15T17:32:43.841Z,95074.00
2023-03-15T17:33:43.697Z,95076.00
2023-03-15T17:34:43.731Z,95076.00
2023-03-15T17:35:43.765Z,95076.00
2023-03-15T17:36:43.768Z,95078.00
2023-03-15T17:37:43.823Z,95080.00
2023-03-15T17:38:43.809Z,95082.00
2023-03-15T17:39:43.843Z,95086.00
2023-03-15T17:40:43.869Z,95086.00
2023-03-15T17:41:43.905Z,95088.00
2023-03-15T17:42:43.892Z,95088.00
2023-03-15T17:43:43.931Z,95088.00
2023-03-15T17:44:43.937Z,95088.00
2023-03-15T17:45:43.985Z,95088.00
2023-03-15T17:46:44.041Z,95088.00
2023-03-15T17:47:43.999Z,95086.00
2023-03-15T17:48:44.016Z,95090.00
2023-03-15T17:49:44.019Z,95086.00
2023-03-15T17:50:44.092Z,95088.00
2023-03-15T17:51:44.142Z,95086.00
2023-03-15T17:52:44.123Z,95088.00
2023-03-15T17:53:44.154Z,95086.00
2023-03-15T17:54:44.182Z,95086.00
2023-03-15T17:55:44.174Z,95084.00
2023-03-15T17:56:44.253Z,95086.00
2023-03-15T17:57:53.958Z,95082.00
2023-03-15T17:58:45.245Z,95082.00
2023-03-15T17:59:44.233Z,95082.00
2023-03-15T18:00:44.211Z,95082.00
2023-03-15T18:01:44.184Z,95084.00
2023-03-15T18:02:49.811Z,95084.00
2023-03-15T18:03:45.232Z,95084.00
2023-03-15T18:04:44.191Z,95084.00
2023-03-15T18:05:44.169Z,95088.00
2023-03-15T18:06:44.171Z,95094.00
2023-03-15T18:07:57.785Z,95098.00
2023-03-15T18:08:45.163Z,95094.00
2023-03-15T18:09:44.196Z,95096.00
2023-03-15T18:10:44.153Z,95096.00
2023-03-15T18:11:44.151Z,95098.00
2023-03-15T18:12:44.115Z,95096.00
2023-03-15T18:13:44.111Z,95098.00
2023-03-15T18:14:44.145Z,95099.00
2023-03-15T18:15:44.098Z,95099.00
2023-03-15T18:16:44.121Z,95101.00
2023-03-15T18:17:44.108Z,95103.00
2023-03-15T18:18:44.089Z,95105.00
2023-03-15T18:19:44.070Z,95105.00
2023-03-15T18:20:44.077Z,95099.00
2023-03-15T18:21:44.081Z,95103.00
2023-03-15T18:22:44.090Z,95103.00
2023-03-15T18:23:44.053Z,95103.00
2023-03-15T18:24:46.639Z,95107.00
2023-03-15T18:25:44.096Z,95107.00
2023-03-15T18:26:44.069Z,95109.00
2023-03-15T18:27:44.027Z,95105.00
2023-03-15T18:28:44.019Z,95113.00
2023-03-15T18:29:44.014Z,95113.00
2023-03-15T18:30:44.055Z,95115.00
2023-03-15T18:31:44.048Z,95113.00
2023-03-15T18:32:44.069Z,95117.00
2023-03-15T18:33:44.004Z,95117.00
2023-03-15T18:34:44.007Z,95119.00
2023-03-15T18:35:44.043Z,95119.00
2023-03-15T18:36:43.973Z,95119.00
2023-03-15T18:37:43.960Z,95121.00
2023-03-15T18:38:43.987Z,95119.00
2023-03-15T18:39:43.944Z,95119.00
2023-03-15T18:40:43.934Z,95123.00
2023-03-15T18:41:43.951Z,95123.00
2023-03-15T18:42:43.933Z,95121.00
2023-03-15T18:43:43.932Z,95115.00
2023-03-15T18:44:43.919Z,95119.00
2023-03-15T18:45:43.918Z,95117.00
2023-03-15T18:46:43.880Z,95117.00
2023-03-15T18:47:43.909Z,95117.00
2023-03-15T18:48:43.879Z,95119.00
2023-03-15T18:49:43.864Z,95121.00
2023-03-15T18:50:43.867Z,95125.00
2023-03-15T18:51:43.889Z,95123.00
2023-03-15T18:52:43.878Z,95125.00
2023-03-15T18:53:43.877Z,95125.00
2023-03-15T18:54:43.861Z,95125.00
2023-03-15T18:55:43.860Z,95125.00
2023-03-15T18:56:43.829Z,95129.00
2023-03-15T18:57:43.819Z,95131.00
2023-03-15T18:58:43.811Z,95133.00
2023-03-15T18:59:43.828Z,95137.00
2023-03-15T19:00:43.793Z,95145.00
2023-03-15T19:01:43.815Z,95137.00
2023-03-15T19:02:43.904Z,95137.00
2023-03-15T19:03:43.782Z,95145.00
2023-03-15T19:04:43.780Z,95145.00
2023-03-15T19:05:43.777Z,95147.00
2023-03-15T19:06:43.779Z,95147.00
2023-03-15T19:07:44.799Z,95149.00
2023-03-15T19:08:43.751Z,95153.00
2023-03-15T19:09:43.746Z,95153.00